createdAt,value
2022-11-09T00:02:56.498Z,2.62
2022-11-09T00:06:01.787Z,2.83
2022-11-09T00:09:08.575Z,2.96
2022-11-09T00:12:13.095Z,3.37
2022-11-09T00:15:17.392Z,3.50
2022-11-09T00:18:21.554Z,3.89
2022-11-09T00:21:26.512Z,4.12
2022-11-09T00:24:30.938Z,4.48
2022-11-09T00:27:35.289Z,4.80
2022-11-09T00:30:39.817Z,4.77
2022-11-09T00:33:44.203Z,5.05
2022-11-09T00:36:48.813Z,4.90
2022-11-09T00:39:52.996Z,4.89
2022-11-09T00:42:57.189Z,4.51
2022-11-09T00:46:01.590Z,4.13
2022-11-09T00:49:05.937Z,4.46
2022-11-09T00:52:10.749Z,4.91
2022-11-09T00:55:15.262Z,4.90
2022-11-09T00:58:19.661Z,4.98
2022-11-09T01:01:24.597Z,5.33
2022-11-09T01:04:29.233Z,5.87
2022-11-09T01:07:33.642Z,6.03
2022-11-09T01:10:40.777Z,6.00
2022-11-09T01:13:45.843Z,6.25
2022-11-09T01:16:50.418Z,6.35
2022-11-09T01:19:54.798Z,6.57
2022-11-09T01:23:00.002Z,6.39
2022-11-09T01:26:10.881Z,6.28
2022-11-09T01:29:15.304Z,6.42
2022-11-09T01:32:19.497Z,6.28
2022-11-09T01:35:23.748Z,6.56
2022-11-09T01:38:29.219Z,6.39
2022-11-09T01:41:33.500Z,6.48
2022-11-09T01:44:41.201Z,6.33
2022-11-09T01:48:04.299Z,6.34
2022-11-09T01:51:14.401Z,6.48
2022-11-09T01:54:25.988Z,6.42
2022-11-09T01:57:37.909Z,6.59
2022-11-09T02:00:45.951Z,6.58
2022-11-09T02:04:17.305Z,6.49
2022-11-09T02:07:23.635Z,6.42
2022-11-09T02:10:35.117Z,6.37
2022-11-09T02:13:42.725Z,6.53
2022-11-09T02:16:48.810Z,6.90
2022-11-09T02:19:52.890Z,6.80
2022-11-09T02:22:59.140Z,6.91
2022-11-09T02:26:15.781Z,6.77
2022-11-09T02:29:27.416Z,6.66
2022-11-09T02:32:32.734Z,7.06
2022-11-09T02:35:37.690Z,6.82
2022-11-09T02:38:42.826Z,6.95
2022-11-09T02:41:55.188Z,7.09
2022-11-09T02:45:01.457Z,7.38
2022-11-09T02:48:07.400Z,7.48
2022-11-09T02:51:14.427Z,7.38
2022-11-09T02:54:21.405Z,7.55
2022-11-09T02:57:26.543Z,7.55
2022-11-09T03:00:31.039Z,7.67
2022-11-09T03:03:35.409Z,7.60
2022-11-09T03:06:39.872Z,7.84
2022-11-09T03:09:49.960Z,8.11
2022-11-09T03:12:56.355Z,8.04
2022-11-09T03:16:05.250Z,8.19
2022-11-09T03:19:13.124Z,8.28
2022-11-09T03:22:17.570Z,8.26
2022-11-09T03:25:23.184Z,8.41
2022-11-09T03:28:28.003Z,8.53
2022-11-09T03:31:32.528Z,8.73
2022-11-09T03:34:41.015Z,8.67
2022-11-09T03:37:46.385Z,8.87
2022-11-09T03:40:50.713Z,9.02
2022-11-09T03:43:55.773Z,9.40
2022-11-09T03:47:00.127Z,9.72
2022-11-09T03:50:05.050Z,9.75
2022-11-09T03:53:11.542Z,9.78
2022-11-09T03:56:16.002Z,9.79
2022-11-09T03:59:20.503Z,9.38
2022-11-09T04:02:24.774Z,9.57
2022-11-09T04:05:29.653Z,9.60
2022-11-09T04:08:34.022Z,9.53
2022-11-09T04:11:38.642Z,9.66
2022-11-09T04:14:42.972Z,9.71
2022-11-09T04:17:56.879Z,9.59
2022-11-09T04:21:01.043Z,9.49
2022-11-09T04:24:05.786Z,9.40
2022-11-09T04:27:09.947Z,9.52
2022-11-09T04:30:14.354Z,9.60
2022-11-09T04:33:19.158Z,9.46
2022-11-09T04:36:24.328Z,9.59
2022-11-09T04:39:28.766Z,9.52
2022-11-09T04:42:33.538Z,9.47
2022-11-09T04:45:38.133Z,9.35
2022-11-09T04:48:42.353Z,9.22
2022-11-09T04:51:46.991Z,9.44
2022-11-09T04:54:51.044Z,9.56
2022-11-09T04:57:55.557Z,9.41
2022-11-09T05:01:07.677Z,9.31
2022-11-09T05:04:12.064Z,9.43
2022-11-09T05:07:16.611Z,9.64
2022-11-09T05:10:21.542Z,9.65
2022-11-09T05:13:27.215Z,9.68
2022-11-09T05:16:32.087Z,9.75
2022-11-09T05:19:36.791Z,9.54
2022-11-09T05:22:59.966Z,9.40
2022-11-09T05:26:04.489Z,9.24
2022-11-09T05:29:13.544Z,9.08
2022-11-09T05:32:18.038Z,8.93
2022-11-09T05:35:23.029Z,9.00
2022-11-09T05:38:27.230Z,9.10
2022-11-09T05:41:31.575Z,9.05
2022-11-09T05:44:35.810Z,9.06
2022-11-09T05:47:41.157Z,9.22
2022-11-09T05:50:46.123Z,9.50
2022-11-09T05:53:58.424Z,9.41
2022-11-09T05:57:03.000Z,9.49
2022-11-09T06:00:10.970Z,9.09
2022-11-09T06:03:18.660Z,9.18
2022-11-09T06:06:23.279Z,9.18
2022-11-09T06:09:27.588Z,9.29
2022-11-09T06:12:32.874Z,9.41
2022-11-09T06:15:37.257Z,9.56
2022-11-09T06:18:41.745Z,9.59
2022-11-09T06:21:46.684Z,9.53
2022-11-09T06:24:52.093Z,9.29
2022-11-09T06:27:57.067Z,8.89
2022-11-09T06:31:02.956Z,8.97
2022-11-09T06:34:07.149Z,8.87
2022-11-09T06:37:11.623Z,8.82
2022-11-09T06:40:16.231Z,8.73
2022-11-09T06:43:21.211Z,8.74
2022-11-09T06:46:26.424Z,8.67
2022-11-09T06:49:30.682Z,8.69
2022-11-09T06:52:34.845Z,8.43
2022-11-09T06:55:39.722Z,8.26
2022-11-09T06:58:44.765Z,8.32
2022-11-09T07:01:49.128Z,8.11
2022-11-09T07:04:53.626Z,8.12
2022-11-09T07:07:58.952Z,7.99
2022-11-09T07:11:16.999Z,7.95
2022-11-09T07:14:21.287Z,7.67
2022-11-09T07:17:25.844Z,7.44
2022-11-09T07:20:31.094Z,7.23
2022-11-09T07:23:35.789Z,7.14
2022-11-09T07:26:39.998Z,6.96
2022-11-09T07:29:44.177Z,6.89
2022-11-09T07:36:16.884Z,6.86
2022-11-09T07:39:24.191Z,6.83
2022-11-09T07:42:28.462Z,6.82
2022-11-09T07:45:34.490Z,6.55
2022-11-09T07:48:38.851Z,6.59
2022-11-09T07:51:43.370Z,6.46
2022-11-09T07:54:51.971Z,6.25
2022-11-09T07:57:58.630Z,6.05
2022-11-09T08:01:03.226Z,5.80
2022-11-09T08:04:07.832Z,5.71
2022-11-09T08:07:12.489Z,5.49
2022-11-09T08:10:17.279Z,5.25
2022-11-09T08:13:22.851Z,5.32
2022-11-09T08:16:27.746Z,4.90
2022-11-09T08:19:32.135Z,4.83
2022-11-09T08:22:46.347Z,4.79
2022-11-09T08:25:52.099Z,4.99
2022-11-09T08:28:56.806Z,4.97
2022-11-09T08:32:01.868Z,4.70
2022-11-09T08:35:06.927Z,4.73
2022-11-09T08:38:11.371Z,4.93
2022-11-09T08:41:15.950Z,5.02
2022-11-09T08:44:20.066Z,4.84
2022-11-09T08:47:24.715Z,4.54
2022-11-09T08:50:30.891Z,4.70
2022-11-09T08:53:35.199Z,4.28
2022-11-09T08:56:39.748Z,3.96
2022-11-09T08:59:44.268Z,3.71
2022-11-09T09:02:48.706Z,3.99
2022-11-09T09:05:53.397Z,4.40
2022-11-09T09:08:57.743Z,4.33
2022-11-09T09:12:02.815Z,4.18
2022-11-09T09:15:08.174Z,3.88
2022-11-09T09:18:12.823Z,4.18
2022-11-09T09:21:18.796Z,4.02
2022-11-09T09:24:22.707Z,3.97
2022-11-09T09:27:27.388Z,3.95
2022-11-09T09:30:32.908Z,4.34
2022-11-09T09:33:40.407Z,4.23
2022-11-09T09:36:47.997Z,4.33
2022-11-09T09:39:52.786Z,4.05
2022-11-09T09:42:57.811Z,3.89
2022-11-09T09:46:05.958Z,3.98
2022-11-09T09:49:23.466Z,3.55
2022-11-09T09:52:50.634Z,3.64
2022-11-09T09:56:14.009Z,3.59
2022-11-09T09:59:42.119Z,3.42
2022-11-09T10:02:46.706Z,3.44
2022-11-09T10:05:53.549Z,3.24
2022-11-09T10:09:10.876Z,3.51
2022-11-09T10:12:36.196Z,3.64
2022-11-09T10:16:06.823Z,3.66
2022-11-09T10:19:50.282Z,3.83
2022-11-09T10:23:20.009Z,4.30
2022-11-09T10:26:38.357Z,4.48
2022-11-09T10:29:54.908Z,4.97
2022-11-09T10:33:15.736Z,5.00
2022-11-09T10:36:54.245Z,4.87
2022-11-09T10:40:29.874Z,4.77
2022-11-09T10:43:53.173Z,4.73
2022-11-09T10:47:18.390Z,4.70
2022-11-09T10:50:57.250Z,4.56
2022-11-09T10:54:38.814Z,4.41
2022-11-09T10:58:14.757Z,4.09
2022-11-09T11:01:38.529Z,4.34
2022-11-09T11:05:08.360Z,4.23
2022-11-09T11:08:32.865Z,4.10
2022-11-09T11:12:17.652Z,4.20
2022-11-09T11:15:45.604Z,4.02
2022-11-09T11:19:33.334Z,4.23
2022-11-09T11:23:11.676Z,4.12
2022-11-09T11:27:10.372Z,4.01
2022-11-09T11:30:40.488Z,3.86
2022-11-09T11:34:04.376Z,3.89
2022-11-09T11:37:57.448Z,3.75
2022-11-09T11:41:57.025Z,3.63
2022-11-09T11:45:43.183Z,3.40
2022-11-09T11:49:32.950Z,3.68
2022-11-09T11:53:04.733Z,3.59
2022-11-09T11:56:31.246Z,3.55
2022-11-09T12:00:12.418Z,3.50
2022-11-09T12:03:36.080Z,3.34
2022-11-09T12:07:07.620Z,3.14
2022-11-09T12:10:41.324Z,3.05
2022-11-09T12:14:39.431Z,3.03
2022-11-09T12:18:38.867Z,2.90
2022-11-09T12:22:24.695Z,2.75
2022-11-09T12:26:24.011Z,2.60
2022-11-09T12:30:00.806Z,2.55
2022-11-09T12:33:33.708Z,2.20
2022-11-09T12:37:06.023Z,2.14
2022-11-09T12:40:55.205Z,2.09
2022-11-09T12:44:54.627Z,2.16
2022-11-09T12:48:31.678Z,2.01
2022-11-09T12:51:58.942Z,1.92
2022-11-09T12:55:43.778Z,1.97
2022-11-09T12:59:29.364Z,1.70
2022-11-09T13:02:58.557Z,1.59
2022-11-09T13:06:34.210Z,1.65
2022-11-09T13:10:00.693Z,1.63
2022-11-09T13:13:26.291Z,1.49
2022-11-09T13:16:50.339Z,1.42
2022-11-09T13:20:58.064Z,1.56
2022-11-09T13:24:32.656Z,1.79
2022-11-09T13:27:55.343Z,1.98
2022-11-09T13:31:57.781Z,1.99
2022-11-09T13:35:41.902Z,2.00
2022-11-09T13:39:34.154Z,2.17
2022-11-09T13:43:02.705Z,2.20
2022-11-09T13:46:29.905Z,2.29
2022-11-09T13:49:53.651Z,2.24
2022-11-09T13:53:35.086Z,2.05
2022-11-09T13:56:58.487Z,1.79
2022-11-09T14:00:25.072Z,1.91
2022-11-09T14:03:53.106Z,2.20
2022-11-09T14:07:21.501Z,2.22
2022-11-09T14:11:06.233Z,2.27
2022-11-09T14:14:50.179Z,2.18
2022-11-09T14:18:39.894Z,2.34
2022-11-09T14:22:02.703Z,2.30
2022-11-09T14:25:26.758Z,2.33
2022-11-09T14:28:49.695Z,2.08
2022-11-09T14:32:27.352Z,2.14
2022-11-09T14:35:51.538Z,2.29
2022-11-09T14:39:23.990Z,2.12
2022-11-09T14:43:29.534Z,2.05
2022-11-09T14:46:57.336Z,2.02
2022-11-09T14:50:29.881Z,1.93
2022-11-09T14:53:52.763Z,2.03
2022-11-09T14:57:19.221Z,2.01
2022-11-09T15:00:46.066Z,2.02
2022-11-09T15:04:17.910Z,2.16
2022-11-09T15:07:40.930Z,1.99
2022-11-09T15:11:03.896Z,1.90
2022-11-09T15:14:35.214Z,1.86
2022-11-09T15:17:58.635Z,1.66
2022-11-09T15:21:27.656Z,1.79
2022-11-09T15:24:50.647Z,1.64
2022-11-09T15:28:16.239Z,1.57
2022-11-09T15:31:39.400Z,1.25
2022-11-09T15:35:02.160Z,1.33
2022-11-09T15:38:43.311Z,1.13
2022-11-09T15:42:06.812Z,0.96
2022-11-09T15:45:29.586Z,0.76
2022-11-09T15:48:52.647Z,0.50
2022-11-09T15:52:15.373Z,0.49
2022-11-09T15:55:37.961Z,0.59
2022-11-09T15:59:00.700Z,0.23
2022-11-09T16:02:23.471Z,0.13
2022-11-09T16:05:47.109Z,0.09
2022-11-09T16:09:10.112Z,-0.04
2022-11-09T16:12:33.093Z,-0.05
2022-11-09T16:16:05.028Z,-0.27
2022-11-09T16:19:28.054Z,-0.47
2022-11-09T16:22:51.042Z,-0.67
2022-11-09T16:26:16.597Z,-0.75
2022-11-09T16:29:42.077Z,-0.86
2022-11-09T16:33:04.852Z,-0.91
2022-11-09T16:36:27.807Z,-0.96
2022-11-09T16:39:51.732Z,-1.06
2022-11-09T16:43:14.309Z,-1.15
2022-11-09T16:46:37.578Z,-0.97
2022-11-09T16:50:00.702Z,-1.03
2022-11-09T16:53:26.912Z,-1.33
2022-11-09T16:56:50.286Z,-1.22
2022-11-09T17:00:14.045Z,-1.42
2022-11-09T17:03:36.797Z,-1.49
2022-11-09T17:07:00.010Z,-1.58
2022-11-09T17:10:22.554Z,-1.46
2022-11-09T17:13:45.555Z,-1.65
2022-11-09T17:17:08.087Z,-1.59
2022-11-09T17:20:31.849Z,-1.67
2022-11-09T17:23:56.174Z,-1.70
2022-11-09T17:27:18.971Z,-1.57
2022-11-09T17:30:42.820Z,-1.73
2022-11-09T17:34:05.968Z,-1.69
2022-11-09T17:37:29.630Z,-1.77
2022-11-09T17:40:52.033Z,-1.75
2022-11-09T17:44:14.952Z,-1.53
2022-11-09T17:47:37.855Z,-1.67
2022-11-09T17:51:01.490Z,-1.87
2022-11-09T17:54:24.290Z,-2.17
2022-11-09T17:57:46.948Z,-2.09
2022-11-09T18:01:12.503Z,-1.90
2022-11-09T18:04:35.086Z,-2.10
2022-11-09T18:07:57.821Z,-2.53
2022-11-09T18:11:20.430Z,-2.63
2022-11-09T18:14:44.738Z,-2.52
2022-11-09T18:18:08.497Z,-2.73
2022-11-09T18:21:32.559Z,-3.22
2022-11-09T18:24:58.339Z,-2.77
2022-11-09T18:28:21.416Z,-2.70
2022-11-09T18:31:44.511Z,-2.79
2022-11-09T18:35:08.656Z,-3.21
2022-11-09T18:38:32.384Z,-3.16
2022-11-09T18:41:55.730Z,-3.05
2022-11-09T18:45:18.502Z,-3.36
2022-11-09T18:48:41.935Z,-3.55
2022-11-09T18:52:04.650Z,-3.64
2022-11-09T18:55:27.459Z,-3.63
2022-11-09T18:58:55.598Z,-3.51
2022-11-09T19:02:18.466Z,-3.34
2022-11-09T19:05:45.721Z,-3.29
2022-11-09T19:09:29.545Z,-3.91
2022-11-09T19:12:52.352Z,-3.68
2022-11-09T19:16:16.495Z,-3.85
2022-11-09T19:19:39.381Z,-4.22
2022-11-09T19:23:02.078Z,-3.94
2022-11-09T19:26:25.108Z,-3.92
2022-11-09T19:29:48.727Z,-4.18
2022-11-09T19:33:12.082Z,-4.52
2022-11-09T19:36:34.922Z,-4.06
2022-11-09T19:39:57.862Z,-4.24
2022-11-09T19:43:21.308Z,-4.46
2022-11-09T19:46:44.869Z,-4.62
2022-11-09T19:50:08.423Z,-4.59
2022-11-09T19:53:32.309Z,-4.57
2022-11-09T19:56:55.058Z,-4.62
2022-11-09T20:00:19.451Z,-4.65
2022-11-09T20:03:42.184Z,-4.56
2022-11-09T20:07:05.965Z,-4.59
2022-11-09T20:10:28.486Z,-4.52
2022-11-09T20:13:51.052Z,-4.60
2022-11-09T20:17:13.957Z,-4.46
2022-11-09T20:20:36.994Z,-4.30
2022-11-09T20:23:59.777Z,-4.51
2022-11-09T20:27:26.924Z,-4.73
2022-11-09T20:30:52.060Z,-4.64
2022-11-09T20:34:15.499Z,-4.39
2022-11-09T20:37:38.377Z,-4.58
2022-11-09T20:41:07.072Z,-4.49
2022-11-09T20:44:29.598Z,-4.57
2022-11-09T20:48:10.520Z,-4.66
2022-11-09T20:51:35.918Z,-4.87
2022-11-09T20:54:58.799Z,-4.99
2022-11-09T20:58:22.664Z,-4.72
2022-11-09T21:01:46.707Z,-4.72
2022-11-09T21:05:09.909Z,-4.81
2022-11-09T21:08:33.282Z,-4.85
2022-11-09T21:12:14.900Z,-4.87
2022-11-09T21:15:38.072Z,-4.60
2022-11-09T21:19:01.209Z,-4.92
2022-11-09T21:22:43.838Z,-4.76
2022-11-09T21:26:25.188Z,-4.90
2022-11-09T21:29:54.227Z,-4.72
2022-11-09T21:33:17.307Z,-4.58
2022-11-09T21:36:40.240Z,-4.46
2022-11-09T21:40:02.972Z,-4.18
2022-11-09T21:43:26.775Z,-4.27
2022-11-09T21:46:51.156Z,-4.11
2022-11-09T21:50:14.032Z,-4.14
2022-11-09T21:53:39.723Z,-4.16
2022-11-09T21:57:02.154Z,-4.14
2022-11-09T22:00:25.058Z,-4.12
2022-11-09T22:03:48.717Z,-4.01
2022-11-09T22:07:14.273Z,-3.95
2022-11-09T22:10:37.353Z,-3.95
2022-11-09T22:14:18.538Z,-3.68
2022-11-09T22:17:42.530Z,-3.93
2022-11-09T22:21:05.442Z,-3.68
2022-11-09T22:24:31.587Z,-3.72
2022-11-09T22:27:58.713Z,-3.63
2022-11-09T22:31:21.191Z,-3.51
2022-11-09T22:34:45.692Z,-3.49
2022-11-09T22:38:08.677Z,-3.49
2022-11-09T22:41:31.384Z,-3.37
2022-11-09T22:44:55.082Z,-3.08
2022-11-09T22:48:18.059Z,-2.54
2022-11-09T22:51:41.125Z,-2.72
2022-11-09T22:55:03.875Z,-2.11
2022-11-09T22:58:27.721Z,-2.22
2022-11-09T23:01:50.703Z,-2.01
2022-11-09T23:05:13.431Z,-1.29
2022-11-09T23:08:39.987Z,-0.56
2022-11-09T23:12:02.330Z,-0.77
2022-11-09T23:15:24.994Z,-0.14
2022-11-09T23:18:57.031Z,-0.16
2022-11-09T23:22:20.109Z,-0.60
2022-11-09T23:25:55.179Z,0.07
2022-11-09T23:29:19.215Z,-0.03
2022-11-09T23:32:42.419Z,0.36
2022-11-09T23:36:06.585Z,0.76
2022-11-09T23:39:29.025Z,0.49
2022-11-09T23:42:52.762Z,0.63
2022-11-09T23:46:16.384Z,0.96
2022-11-09T23:49:39.037Z,1.13
2022-11-09T23:53:04.368Z,1.79
2022-11-09T23:56:27.712Z,1.91
2022-11-09T23:59:50.677Z,1.90
